Powell, Missouri
Current Conditions -  °F | °C
As of 10:57 AM on Thursday 30 Oct 2014 (Local Time) from KROG Reporting Station
NA  
Wind Chill: 61°   Ceiling: NA
Heat Index: 61°   Visibility: 10mi
Dew Point: 45°   Wind: 10mph
Humidity: 56%   Direction: 220°SW
Pressure: 30.11"   Gusts: NA
Location:  36.62°N, 94.18°W
Report Text: KROG 301557Z AUTO 22009KT 10SM 16/07 A3011 RMK AO2 SLPNO T01610072 TSNO $
Loading
Personal Weather Stations






























Interactive Weather Map
Tropical Storm Tracking
New forecast layout! Learn more

10-Day Weather Forecast

Advertisements
Track Severe Weather on mobile